Saint-Simeon, Canada
Current Conditions -  °F | °C
As of 2:00 AM on Saturday 20 Dec 2014 (Local Time) from CYBG Reporting Station
Clear Clear  
Wind Chill:   Ceiling: Unl
Heat Index:   Visibility: 25mi
Dew Point:   Wind: 0mph
Humidity: 92%   Direction: NA
Pressure: 30.28"   Gusts: NA
Location:  47.85°N, 69.88°W
Report Text: CYBG 200700Z 00000KT 25SM SKC M16/M17 A3028 RMK SLP268
Loading
Personal Weather Stations






























Interactive Weather Map New forecast layout! Learn more

10-Day Weather Forecast

Advertisements
Track Severe Weather on mobile